Harper, Texas
Current Conditions -  °F | °C
As of 5:55 PM on Monday 20 Oct 2014 (Local Time) from KT82 Reporting Station
Clear Clear  
Wind Chill: 75°   Ceiling: Unl
Heat Index: 75°   Visibility: 10mi
Dew Point: 56°   Wind: 6mph
Humidity: 52%   Direction: 120°ESE
Pressure: 30.02"   Gusts: NA
Location:  30.3°N, 99.25°W
Report Text: KT82 202255Z AUTO 12005KT 10SM CLR 24/14 A3002 RMK AO2 T02400135
Loading
Personal Weather Stations






























Interactive Weather Map
Tropical Storm Tracking
New forecast layout! Learn more

10-Day Weather Forecast

Advertisements
Track Severe Weather on mobile